sensor_id;sensor_type;location;lat;lon;timestamp;pressure;altitude;pressure_sealevel;temperature;humidity
77770;BME280;66961;51.482;9.160;2024-02-23T00:01:10;96382.41;;;7.27;69.07
77770;BME280;66961;51.482;9.160;2024-02-23T00:03:35;96385.59;;;7.29;68.17
77770;BME280;66961;51.482;9.160;2024-02-23T00:06:01;96397.75;;;7.30;68.31
77770;BME280;66961;51.482;9.160;2024-02-23T00:08:26;96387.56;;;7.34;66.57
77770;BME280;66961;51.482;9.160;2024-02-23T00:10:51;96392.97;;;7.39;66.19
77770;BME280;66961;51.482;9.160;2024-02-23T00:13:16;96458.88;;;7.50;63.28
77770;BME280;66961;51.482;9.160;2024-02-23T00:15:42;96423.38;;;7.53;62.98
77770;BME280;66961;51.482;9.160;2024-02-23T00:18:07;96427.44;;;7.37;63.68
77770;BME280;66961;51.482;9.160;2024-02-23T00:20:32;96440.03;;;7.35;63.94
77770;BME280;66961;51.482;9.160;2024-02-23T00:22:57;96441.28;;;7.32;63.21
77770;BME280;66961;51.482;9.160;2024-02-23T00:25:23;96462.81;;;7.29;63.83
77770;BME280;66961;51.482;9.160;2024-02-23T00:27:48;96469.09;;;7.28;64.44
77770;BME280;66961;51.482;9.160;2024-02-23T00:30:14;96485.22;;;7.20;64.99
77770;BME280;66961;51.482;9.160;2024-02-23T00:32:39;96471.63;;;7.05;65.81
77770;BME280;66961;51.482;9.160;2024-02-23T00:35:05;96500.53;;;7.12;63.66
77770;BME280;66961;51.482;9.160;2024-02-23T00:37:30;96523.94;;;7.02;65.30
77770;BME280;66961;51.482;9.160;2024-02-23T00:39:55;96514.78;;;7.04;64.47
77770;BME280;66961;51.482;9.160;2024-02-23T00:42:21;96524.81;;;6.95;63.61
77770;BME280;66961;51.482;9.160;2024-02-23T00:44:46;96532.41;;;6.85;64.38
77770;BME280;66961;51.482;9.160;2024-02-23T00:47:11;96542.06;;;6.73;65.92
77770;BME280;66961;51.482;9.160;2024-02-23T00:49:37;96544.38;;;6.63;66.79
77770;BME280;66961;51.482;9.160;2024-02-23T00:52:02;96538.38;;;6.56;66.08
77770;BME280;66961;51.482;9.160;2024-02-23T00:54:28;96576.22;;;6.55;67.24
77770;BME280;66961;51.482;9.160;2024-02-23T00:56:53;96572.63;;;6.49;67.12
77770;BME280;66961;51.482;9.160;2024-02-23T00:59:18;96595.06;;;6.52;67.45
77770;BME280;66961;51.482;9.160;2024-02-23T01:01:43;96597.22;;;6.61;66.92
77770;BME280;66961;51.482;9.160;2024-02-23T01:04:09;96601.50;;;6.56;68.80
77770;BME280;66961;51.482;9.160;2024-02-23T01:06:34;96611.81;;;6.57;64.96
77770;BME280;66961;51.482;9.160;2024-02-23T01:08:59;96611.91;;;6.44;66.96
77770;BME280;66961;51.482;9.160;2024-02-23T01:11:24;96645.06;;;6.52;66.60
77770;BME280;66961;51.482;9.160;2024-02-23T01:13:50;96619.56;;;6.52;66.11
77770;BME280;66961;51.482;9.160;2024-02-23T01:16:15;96640.44;;;6.47;68.51
77770;BME280;66961;51.482;9.160;2024-02-23T01:18:41;96641.66;;;6.45;68.39
77770;BME280;66961;51.482;9.160;2024-02-23T01:21:06;96642.69;;;6.44;69.94
77770;BME280;66961;51.482;9.160;2024-02-23T01:23:31;96653.47;;;6.36;70.73
77770;BME280;66961;51.482;9.160;2024-02-23T01:25:57;96667.25;;;6.31;71.27
77770;BME280;66961;51.482;9.160;2024-02-23T01:28:22;96670.47;;;6.33;70.30
77770;BME280;66961;51.482;9.160;2024-02-23T01:30:47;96677.22;;;6.22;70.89
77770;BME280;66961;51.482;9.160;2024-02-23T01:33:12;96697.88;;;6.19;70.29
77770;BME280;66961;51.482;9.160;2024-02-23T01:35:38;96701.53;;;6.18;68.86
77770;BME280;66961;51.482;9.160;2024-02-23T01:38:03;96707.81;;;6.17;68.70
77770;BME280;66961;51.482;9.160;2024-02-23T01:40:28;96708.22;;;6.14;69.27
77770;BME280;66961;51.482;9.160;2024-02-23T01:43:04;96712.47;;;6.15;68.97
77770;BME280;66961;51.482;9.160;2024-02-23T01:45:30;96721.19;;;6.09;71.73
77770;BME280;66961;51.482;9.160;2024-02-23T01:47:55;96729.69;;;6.04;71.96
77770;BME280;66961;51.482;9.160;2024-02-23T01:50:20;96729.09;;;6.02;71.71
77770;BME280;66961;51.482;9.160;2024-02-23T01:52:46;96733.38;;;5.83;73.74
77770;BME280;66961;51.482;9.160;2024-02-23T01:55:11;96758.09;;;5.62;75.72
77770;BME280;66961;51.482;9.160;2024-02-23T01:57:37;96754.47;;;5.50;76.98
77770;BME280;66961;51.482;9.160;2024-02-23T02:00:03;96751.84;;;5.30;78.02
77770;BME280;66961;51.482;9.160;2024-02-23T02:02:29;96757.94;;;5.18;78.03
77770;BME280;66961;51.482;9.160;2024-02-23T02:04:54;96752.69;;;5.11;79.44
77770;BME280;66961;51.482;9.160;2024-02-23T02:07:19;96752.47;;;4.99;80.41
77770;BME280;66961;51.482;9.160;2024-02-23T02:09:45;96753.88;;;4.89;81.62
77770;BME280;66961;51.482;9.160;2024-02-23T02:12:10;96766.19;;;4.82;81.65
77770;BME280;66961;51.482;9.160;2024-02-23T02:14:35;96775.47;;;4.84;80.43
77770;BME280;66961;51.482;9.160;2024-02-23T02:17:00;96771.81;;;4.79;81.40
77770;BME280;66961;51.482;9.160;2024-02-23T02:19:26;96778.69;;;4.80;82.24
77770;BME280;66961;51.482;9.160;2024-02-23T02:21:51;96786.38;;;4.81;81.42
77770;BME280;66961;51.482;9.160;2024-02-23T02:24:16;96799.69;;;4.80;81.13
77770;BME280;66961;51.482;9.160;2024-02-23T02:26:41;96796.03;;;4.74;81.62
77770;BME280;66961;51.482;9.160;2024-02-23T02:29:07;96794.84;;;4.77;82.03
77770;BME280;66961;51.482;9.160;2024-02-23T02:31:33;96804.13;;;4.79;82.48
77770;BME280;66961;51.482;9.160;2024-02-23T02:33:58;96818.06;;;4.80;81.96
77770;BME280;66961;51.482;9.160;2024-02-23T02:36:23;96824.91;;;4.81;83.30
77770;BME280;66961;51.482;9.160;2024-02-23T02:38:49;96822.88;;;4.76;83.76
77770;BME280;66961;51.482;9.160;2024-02-23T02:41:16;96821.25;;;4.62;85.80
77770;BME280;66961;51.482;9.160;2024-02-23T02:43:42;96832.91;;;4.53;86.21
77770;BME280;66961;51.482;9.160;2024-02-23T02:46:07;96833.09;;;4.45;86.65
77770;BME280;66961;51.482;9.160;2024-02-23T02:48:32;96830.00;;;4.35;87.74
77770;BME280;66961;51.482;9.160;2024-02-23T02:50:58;96821.31;;;4.27;87.97
77770;BME280;66961;51.482;9.160;2024-02-23T02:53:23;96827.50;;;4.13;88.87
77770;BME280;66961;51.482;9.160;2024-02-23T02:55:48;96815.00;;;4.09;88.75
77770;BME280;66961;51.482;9.160;2024-02-23T02:58:14;96820.63;;;4.06;87.95
77770;BME280;66961;51.482;9.160;2024-02-23T03:00:39;96810.09;;;3.99;87.75
77770;BME280;66961;51.482;9.160;2024-02-23T03:03:05;96828.59;;;3.91;88.92
77770;BME280;66961;51.482;9.160;2024-02-23T03:05:30;96828.53;;;3.84;88.84
77770;BME280;66961;51.482;9.160;2024-02-23T03:07:56;96826.13;;;3.83;88.24
77770;BME280;66961;51.482;9.160;2024-02-23T03:10:21;96845.03;;;3.78;88.08
77770;BME280;66961;51.482;9.160;2024-02-23T03:12:46;96843.41;;;3.77;87.93
77770;BME280;66961;51.482;9.160;2024-02-23T03:15:12;96841.16;;;3.74;87.27
77770;BME280;66961;51.482;9.160;2024-02-23T03:17:37;96841.38;;;3.73;87.10
77770;BME280;66961;51.482;9.160;2024-02-23T03:20:03;96846.59;;;3.73;87.69
77770;BME280;66961;51.482;9.160;2024-02-23T03:22:28;96839.69;;;3.65;87.56
77770;BME280;66961;51.482;9.160;2024-02-23T03:24:53;96846.72;;;3.58;87.76
77770;BME280;66961;51.482;9.160;2024-02-23T03:27:19;96842.44;;;3.50;88.43
77770;BME280;66961;51.482;9.160;2024-02-23T03:29:45;96845.41;;;3.47;88.69
77770;BME280;66961;51.482;9.160;2024-02-23T03:32:10;96861.94;;;3.48;88.91
77770;BME280;66961;51.482;9.160;2024-02-23T03:34:35;96866.50;;;3.39;89.46
77770;BME280;66961;51.482;9.160;2024-02-23T03:37:00;96852.72;;;3.30;90.52
77770;BME280;66961;51.482;9.160;2024-02-23T03:39:26;96870.06;;;3.31;89.53
77770;BME280;66961;51.482;9.160;2024-02-23T03:41:51;96871.34;;;3.42;88.08
77770;BME280;66961;51.482;9.160;2024-02-23T03:44:16;96866.88;;;3.36;87.79
77770;BME280;66961;51.482;9.160;2024-02-23T03:46:41;96871.34;;;3.42;87.68
77770;BME280;66961;51.482;9.160;2024-02-23T03:49:07;96883.56;;;3.56;85.83
77770;BME280;66961;51.482;9.160;2024-02-23T03:51:32;96886.91;;;3.72;82.82
77770;BME280;66961;51.482;9.160;2024-02-23T03:53:57;96885.00;;;3.87;81.40
77770;BME280;66961;51.482;9.160;2024-02-23T03:56:23;96888.66;;;3.92;79.81
77770;BME280;66961;51.482;9.160;2024-02-23T03:58:48;96891.75;;;4.03;79.15
77770;BME280;66961;51.482;9.160;2024-02-23T04:01:13;96896.63;;;4.06;78.25
77770;BME280;66961;51.482;9.160;2024-02-23T04:03:38;96891.44;;;4.19;77.44
77770;BME280;66961;51.482;9.160;2024-02-23T04:06:04;96894.34;;;4.30;76.84
77770;BME280;66961;51.482;9.160;2024-02-23T04:08:29;96883.22;;;4.28;75.81
77770;BME280;66961;51.482;9.160;2024-02-23T04:10:54;96891.28;;;4.27;75.23
77770;BME280;66961;51.482;9.160;2024-02-23T04:13:20;96893.72;;;4.28;75.77
77770;BME280;66961;51.482;9.160;2024-02-23T04:15:45;96904.41;;;4.27;75.31
77770;BME280;66961;51.482;9.160;2024-02-23T04:18:10;96907.88;;;4.34;74.68
77770;BME280;66961;51.482;9.160;2024-02-23T04:20:36;96920.00;;;4.42;74.62
77770;BME280;66961;51.482;9.160;2024-02-23T04:23:01;96917.03;;;4.51;73.79
77770;BME280;66961;51.482;9.160;2024-02-23T04:25:26;96936.59;;;4.49;74.10
77770;BME280;66961;51.482;9.160;2024-02-23T04:27:51;96930.81;;;4.60;73.36
77770;BME280;66961;51.482;9.160;2024-02-23T04:30:17;96926.09;;;4.49;75.23
77770;BME280;66961;51.482;9.160;2024-02-23T04:32:42;96931.91;;;4.38;75.80
77770;BME280;66961;51.482;9.160;2024-02-23T04:35:08;96938.09;;;4.30;76.33
77770;BME280;66961;51.482;9.160;2024-02-23T04:37:33;96939.28;;;4.27;75.06
77770;BME280;66961;51.482;9.160;2024-02-23T04:39:58;96947.34;;;4.26;74.66
77770;BME280;66961;51.482;9.160;2024-02-23T04:42:24;96936.84;;;4.26;74.39
77770;BME280;66961;51.482;9.160;2024-02-23T04:44:49;96940.16;;;4.35;74.71
77770;BME280;66961;51.482;9.160;2024-02-23T04:47:15;96949.78;;;4.27;74.95
77770;BME280;66961;51.482;9.160;2024-02-23T04:49:40;96970.75;;;4.27;74.70
77770;BME280;66961;51.482;9.160;2024-02-23T04:52:05;96963.75;;;4.35;73.22
77770;BME280;66961;51.482;9.160;2024-02-23T04:54:31;96952.06;;;4.37;72.52
77770;BME280;66961;51.482;9.160;2024-02-23T04:56:56;96968.78;;;4.36;74.07
77770;BME280;66961;51.482;9.160;2024-02-23T04:59:21;96977.03;;;4.33;73.63
77770;BME280;66961;51.482;9.160;2024-02-23T05:01:46;96971.38;;;4.29;74.48
77770;BME280;66961;51.482;9.160;2024-02-23T05:04:12;96970.75;;;4.27;74.28
77770;BME280;66961;51.482;9.160;2024-02-23T05:06:37;96976.19;;;4.26;72.45
77770;BME280;66961;51.482;9.160;2024-02-23T05:09:02;96978.03;;;4.32;72.73
77770;BME280;66961;51.482;9.160;2024-02-23T05:11:28;96975.63;;;4.30;71.89
77770;BME280;66961;51.482;9.160;2024-02-23T05:13:53;96968.31;;;4.26;73.18
77770;BME280;66961;51.482;9.160;2024-02-23T05:16:18;96962.66;;;4.22;71.76
77770;BME280;66961;51.482;9.160;2024-02-23T05:18:44;96967.47;;;4.19;72.24
77770;BME280;66961;51.482;9.160;2024-02-23T05:21:09;96975.56;;;4.24;71.62
77770;BME280;66961;51.482;9.160;2024-02-23T05:23:35;96975.81;;;4.29;71.71
77770;BME280;66961;51.482;9.160;2024-02-23T05:26:00;96978.38;;;4.22;73.01
77770;BME280;66961;51.482;9.160;2024-02-23T05:28:25;96987.47;;;4.26;71.43
77770;BME280;66961;51.482;9.160;2024-02-23T05:30:51;96985.63;;;4.20;72.89
77770;BME280;66961;51.482;9.160;2024-02-23T05:33:16;96965.94;;;4.03;73.84
77770;BME280;66961;51.482;9.160;2024-02-23T05:35:41;96968.94;;;4.00;73.27
77770;BME280;66961;51.482;9.160;2024-02-23T05:38:07;96973.31;;;3.93;73.45
77770;BME280;66961;51.482;9.160;2024-02-23T05:40:32;96977.75;;;3.92;73.19
77770;BME280;66961;51.482;9.160;2024-02-23T05:42:57;96975.81;;;3.80;74.41
77770;BME280;66961;51.482;9.160;2024-02-23T05:45:23;96981.00;;;3.73;74.67
77770;BME280;66961;51.482;9.160;2024-02-23T05:47:48;96982.75;;;3.66;75.64
77770;BME280;66961;51.482;9.160;2024-02-23T05:50:13;96985.16;;;3.61;75.31
77770;BME280;66961;51.482;9.160;2024-02-23T05:52:38;96974.66;;;3.61;75.06
77770;BME280;66961;51.482;9.160;2024-02-23T05:55:04;96981.09;;;3.58;75.59
77770;BME280;66961;51.482;9.160;2024-02-23T05:57:29;96991.75;;;3.57;75.55
77770;BME280;66961;51.482;9.160;2024-02-23T05:59:55;96998.97;;;3.55;76.13
77770;BME280;66961;51.482;9.160;2024-02-23T06:02:20;97002.16;;;3.50;77.21
77770;BME280;66961;51.482;9.160;2024-02-23T06:04:45;97002.53;;;3.47;76.41
77770;BME280;66961;51.482;9.160;2024-02-23T06:07:11;97006.41;;;3.51;75.67
77770;BME280;66961;51.482;9.160;2024-02-23T06:09:36;97016.44;;;3.69;74.54
77770;BME280;66961;51.482;9.160;2024-02-23T06:12:01;97024.03;;;3.64;75.30
77770;BME280;66961;51.482;9.160;2024-02-23T06:14:26;97024.00;;;3.57;75.56
77770;BME280;66961;51.482;9.160;2024-02-23T06:16:52;97022.38;;;3.56;75.92
77770;BME280;66961;51.482;9.160;2024-02-23T06:19:17;97013.06;;;3.54;74.63
77770;BME280;66961;51.482;9.160;2024-02-23T06:21:42;97027.69;;;3.63;74.36
77770;BME280;66961;51.482;9.160;2024-02-23T06:24:08;97037.13;;;3.64;75.29
77770;BME280;66961;51.482;9.160;2024-02-23T06:26:33;97043.94;;;3.58;75.41
77770;BME280;66961;51.482;9.160;2024-02-23T06:28:58;97052.81;;;3.57;75.96
77770;BME280;66961;51.482;9.160;2024-02-23T06:31:23;97045.06;;;3.49;76.56
77770;BME280;66961;51.482;9.160;2024-02-23T06:33:49;97053.72;;;3.50;76.39
77770;BME280;66961;51.482;9.160;2024-02-23T06:36:14;97061.38;;;3.51;77.04
77770;BME280;66961;51.482;9.160;2024-02-23T06:38:39;97064.38;;;3.48;78.16
77770;BME280;66961;51.482;9.160;2024-02-23T06:41:05;97058.78;;;3.51;78.53
77770;BME280;66961;51.482;9.160;2024-02-23T06:43:30;97071.31;;;3.56;79.12
77770;BME280;66961;51.482;9.160;2024-02-23T06:45:55;97077.03;;;3.66;78.04
77770;BME280;66961;51.482;9.160;2024-02-23T06:48:20;97068.56;;;3.64;78.83
77770;BME280;66961;51.482;9.160;2024-02-23T06:50:46;97071.88;;;3.73;76.99
77770;BME280;66961;51.482;9.160;2024-02-23T06:53:11;97064.19;;;3.71;77.84
77770;BME280;66961;51.482;9.160;2024-02-23T06:55:36;97069.59;;;3.84;76.74
77770;BME280;66961;51.482;9.160;2024-02-23T06:58:02;97075.09;;;3.89;75.89
77770;BME280;66961;51.482;9.160;2024-02-23T07:00:27;97077.97;;;3.94;76.04
77770;BME280;66961;51.482;9.160;2024-02-23T07:02:52;97067.28;;;3.96;75.82
77770;BME280;66961;51.482;9.160;2024-02-23T07:05:18;97076.53;;;3.92;77.16
77770;BME280;66961;51.482;9.160;2024-02-23T07:07:43;97084.94;;;3.87;76.94
77770;BME280;66961;51.482;9.160;2024-02-23T07:10:08;97085.13;;;3.86;77.28
77770;BME280;66961;51.482;9.160;2024-02-23T07:12:35;97098.84;;;3.88;76.92
77770;BME280;66961;51.482;9.160;2024-02-23T07:15:00;97101.72;;;3.93;78.78
77770;BME280;66961;51.482;9.160;2024-02-23T07:17:26;97108.84;;;3.99;77.24
77770;BME280;66961;51.482;9.160;2024-02-23T07:19:51;97115.72;;;4.00;77.36
77770;BME280;66961;51.482;9.160;2024-02-23T07:22:16;97092.69;;;3.95;76.59
77770;BME280;66961;51.482;9.160;2024-02-23T07:24:42;97118.97;;;4.02;78.06
77770;BME280;66961;51.482;9.160;2024-02-23T07:27:08;97130.69;;;4.06;78.43
77770;BME280;66961;51.482;9.160;2024-02-23T07:29:33;97131.59;;;4.13;78.70
77770;BME280;66961;51.482;9.160;2024-02-23T07:31:58;97127.19;;;4.20;78.99
77770;BME280;66961;51.482;9.160;2024-02-23T07:34:24;97130.44;;;4.22;79.13
77770;BME280;66961;51.482;9.160;2024-02-23T07:36:52;97135.75;;;4.29;78.62
77770;BME280;66961;51.482;9.160;2024-02-23T07:39:17;97133.75;;;4.31;78.14
77770;BME280;66961;51.482;9.160;2024-02-23T07:41:43;97124.25;;;4.30;78.50
77770;BME280;66961;51.482;9.160;2024-02-23T07:44:08;97134.56;;;4.31;79.86
77770;BME280;66961;51.482;9.160;2024-02-23T07:46:34;97136.56;;;4.29;78.28
77770;BME280;66961;51.482;9.160;2024-02-23T07:48:59;97142.06;;;4.35;78.51
77770;BME280;66961;51.482;9.160;2024-02-23T07:51:24;97138.69;;;4.41;78.89
77770;BME280;66961;51.482;9.160;2024-02-23T07:53:50;97147.59;;;4.46;77.84
77770;BME280;66961;51.482;9.160;2024-02-23T07:56:15;97129.00;;;4.41;77.03
77770;BME280;66961;51.482;9.160;2024-02-23T07:58:40;97143.25;;;4.32;76.76
77770;BME280;66961;51.482;9.160;2024-02-23T08:01:05;97153.91;;;4.30;77.63
77770;BME280;66961;51.482;9.160;2024-02-23T08:03:31;97159.97;;;4.31;78.00
77770;BME280;66961;51.482;9.160;2024-02-23T08:05:56;97163.09;;;4.41;78.29
77770;BME280;66961;51.482;9.160;2024-02-23T08:08:21;97169.47;;;4.53;76.59
77770;BME280;66961;51.482;9.160;2024-02-23T08:10:46;97169.78;;;4.65;75.67
77770;BME280;66961;51.482;9.160;2024-02-23T08:13:12;97170.44;;;4.74;75.19
77770;BME280;66961;51.482;9.160;2024-02-23T08:15:37;97173.16;;;4.87;73.97
77770;BME280;66961;51.482;9.160;2024-02-23T08:18:02;97173.78;;;4.89;73.24
77770;BME280;66961;51.482;9.160;2024-02-23T08:20:28;97176.09;;;4.98;73.67
77770;BME280;66961;51.482;9.160;2024-02-23T08:22:53;97176.75;;;5.07;74.07
77770;BME280;66961;51.482;9.160;2024-02-23T08:25:18;97162.34;;;4.96;73.11
77770;BME280;66961;51.482;9.160;2024-02-23T08:27:43;97174.72;;;5.03;73.08
77770;BME280;66961;51.482;9.160;2024-02-23T08:30:09;97180.53;;;4.98;74.72
77770;BME280;66961;51.482;9.160;2024-02-23T08:32:34;97176.13;;;5.05;74.78
77770;BME280;66961;51.482;9.160;2024-02-23T08:35:00;97177.81;;;5.13;73.02
77770;BME280;66961;51.482;9.160;2024-02-23T08:37:25;97160.06;;;5.15;73.46
77770;BME280;66961;51.482;9.160;2024-02-23T08:39:51;97166.63;;;5.04;72.98
77770;BME280;66961;51.482;9.160;2024-02-23T08:42:16;97179.56;;;5.06;73.06
77770;BME280;66961;51.482;9.160;2024-02-23T08:44:41;97174.72;;;5.03;74.16
77770;BME280;66961;51.482;9.160;2024-02-23T08:47:07;97174.66;;;4.96;74.65
77770;BME280;66961;51.482;9.160;2024-02-23T08:49:32;97180.72;;;4.96;74.66
77770;BME280;66961;51.482;9.160;2024-02-23T08:51:57;97173.91;;;5.02;74.86
77770;BME280;66961;51.482;9.160;2024-02-23T08:54:22;97185.84;;;5.05;73.27
77770;BME280;66961;51.482;9.160;2024-02-23T08:56:48;97189.69;;;5.09;74.27
77770;BME280;66961;51.482;9.160;2024-02-23T08:59:13;97186.94;;;5.23;72.62
77770;BME280;66961;51.482;9.160;2024-02-23T09:01:38;97183.72;;;5.56;71.93
77770;BME280;66961;51.482;9.160;2024-02-23T09:04:04;97175.44;;;5.59;73.32
77770;BME280;66961;51.482;9.160;2024-02-23T09:06:29;97178.28;;;5.57;70.65
77770;BME280;66961;51.482;9.160;2024-02-23T09:08:54;97167.84;;;5.71;70.74
77770;BME280;66961;51.482;9.160;2024-02-23T09:11:19;97171.78;;;5.53;71.04
77770;BME280;66961;51.482;9.160;2024-02-23T09:13:45;97159.66;;;5.52;73.78
77770;BME280;66961;51.482;9.160;2024-02-23T09:16:10;97169.31;;;5.45;72.99
77770;BME280;66961;51.482;9.160;2024-02-23T09:18:35;97163.00;;;5.40;71.79
77770;BME280;66961;51.482;9.160;2024-02-23T09:21:01;97175.09;;;5.75;72.17
77770;BME280;66961;51.482;9.160;2024-02-23T09:23:26;97174.03;;;6.04;72.33
77770;BME280;66961;51.482;9.160;2024-02-23T09:25:52;97167.22;;;6.16;69.83
77770;BME280;66961;51.482;9.160;2024-02-23T09:28:17;97190.09;;;6.29;69.88
77770;BME280;66961;51.482;9.160;2024-02-23T09:30:42;97194.59;;;6.48;69.18
77770;BME280;66961;51.482;9.160;2024-02-23T09:33:08;97170.31;;;6.79;68.98
77770;BME280;66961;51.482;9.160;2024-02-23T09:35:33;97205.78;;;6.70;68.05
77770;BME280;66961;51.482;9.160;2024-02-23T09:37:58;97194.81;;;6.80;68.21
77770;BME280;66961;51.482;9.160;2024-02-23T09:40:24;97189.97;;;6.83;67.12
77770;BME280;66961;51.482;9.160;2024-02-23T09:42:57;97187.53;;;6.88;67.89
77770;BME280;66961;51.482;9.160;2024-02-23T09:45:24;97187.53;;;6.88;68.80
77770;BME280;66961;51.482;9.160;2024-02-23T09:47:50;97180.44;;;6.89;66.76
77770;BME280;66961;51.482;9.160;2024-02-23T09:50:16;97192.19;;;6.93;65.91
77770;BME280;66961;51.482;9.160;2024-02-23T09:52:42;97201.53;;;7.02;68.25
77770;BME280;66961;51.482;9.160;2024-02-23T09:55:07;97206.16;;;6.93;67.14
77770;BME280;66961;51.482;9.160;2024-02-23T09:57:33;97212.22;;;6.54;68.99
77770;BME280;66961;51.482;9.160;2024-02-23T09:59:58;97204.28;;;6.41;68.50
77770;BME280;66961;51.482;9.160;2024-02-23T10:02:25;97218.25;;;6.42;68.92
77770;BME280;66961;51.482;9.160;2024-02-23T10:04:51;97216.88;;;6.59;67.71
77770;BME280;66961;51.482;9.160;2024-02-23T10:07:18;97212.59;;;6.45;69.49
77770;BME280;66961;51.482;9.160;2024-02-23T10:09:43;97225.59;;;6.59;68.60
77770;BME280;66961;51.482;9.160;2024-02-23T10:12:09;97226.19;;;6.61;70.77
77770;BME280;66961;51.482;9.160;2024-02-23T10:14:34;97221.34;;;6.58;69.69
77770;BME280;66961;51.482;9.160;2024-02-23T10:16:59;97221.56;;;6.90;69.41
77770;BME280;66961;51.482;9.160;2024-02-23T10:19:25;97221.13;;;7.32;66.60
77770;BME280;66961;51.482;9.160;2024-02-23T10:21:51;97216.25;;;7.62;65.68
77770;BME280;66961;51.482;9.160;2024-02-23T10:24:17;97231.78;;;7.84;65.97
77770;BME280;66961;51.482;9.160;2024-02-23T10:26:43;97217.88;;;7.63;62.88
77770;BME280;66961;51.482;9.160;2024-02-23T10:29:09;97220.09;;;7.67;64.98
77770;BME280;66961;51.482;9.160;2024-02-23T10:31:35;97220.88;;;7.74;64.99
77770;BME280;66961;51.482;9.160;2024-02-23T10:34:06;97213.81;;;7.61;61.99
77770;BME280;66961;51.482;9.160;2024-02-23T10:36:32;97221.72;;;7.54;65.26
77770;BME280;66961;51.482;9.160;2024-02-23T10:39:01;97226.41;;;7.39;63.64
77770;BME280;66961;51.482;9.160;2024-02-23T10:41:27;97206.38;;;7.18;64.92
77770;BME280;66961;51.482;9.160;2024-02-23T10:43:55;97222.56;;;7.28;62.85
77770;BME280;66961;51.482;9.160;2024-02-23T10:46:21;97204.72;;;7.44;65.44
77770;BME280;66961;51.482;9.160;2024-02-23T10:48:48;97206.19;;;7.20;64.59
77770;BME280;66961;51.482;9.160;2024-02-23T10:51:14;97195.25;;;7.23;63.43
77770;BME280;66961;51.482;9.160;2024-02-23T10:53:40;97200.41;;;7.69;63.75
77770;BME280;66961;51.482;9.160;2024-02-23T10:56:06;97201.94;;;7.90;60.14
77770;BME280;66961;51.482;9.160;2024-02-23T10:58:32;97197.19;;;8.18;62.27
77770;BME280;66961;51.482;9.160;2024-02-23T11:01:01;97195.88;;;8.34;61.61
77770;BME280;66961;51.482;9.160;2024-02-23T11:03:29;97199.16;;;8.29;60.93
77770;BME280;66961;51.482;9.160;2024-02-23T11:05:55;97169.16;;;8.24;58.59
77770;BME280;66961;51.482;9.160;2024-02-23T11:08:20;97193.19;;;8.47;64.20
77770;BME280;66961;51.482;9.160;2024-02-23T11:10:49;97192.78;;;8.44;59.13
77770;BME280;66961;51.482;9.160;2024-02-23T11:13:15;97186.31;;;8.40;62.00
77770;BME280;66961;51.482;9.160;2024-02-23T11:15:42;97186.75;;;8.37;60.12
77770;BME280;66961;51.482;9.160;2024-02-23T11:18:27;97189.97;;;8.39;57.92
77770;BME280;66961;51.482;9.160;2024-02-23T11:20:59;97192.31;;;8.60;59.90
77770;BME280;66961;51.482;9.160;2024-02-23T11:23:24;97174.19;;;8.63;60.31
77770;BME280;66961;51.482;9.160;2024-02-23T11:26:04;97179.56;;;8.12;59.98
77770;BME280;66961;51.482;9.160;2024-02-23T11:28:30;97173.78;;;8.28;60.34
77770;BME280;66961;51.482;9.160;2024-02-23T11:30:55;97166.97;;;8.52;61.43
77770;BME280;66961;51.482;9.160;2024-02-23T11:33:30;97170.41;;;8.53;59.94
77770;BME280;66961;51.482;9.160;2024-02-23T11:36:08;97170.69;;;8.38;60.01
77770;BME280;66961;51.482;9.160;2024-02-23T11:38:34;97168.88;;;8.32;59.72
77770;BME280;66961;51.482;9.160;2024-02-23T11:41:00;97184.03;;;8.50;58.44
77770;BME280;66961;51.482;9.160;2024-02-23T11:43:25;97172.41;;;8.57;58.44
77770;BME280;66961;51.482;9.160;2024-02-23T11:45:51;97179.13;;;8.53;58.80
77770;BME280;66961;51.482;9.160;2024-02-23T11:48:16;97174.31;;;8.44;59.41
77770;BME280;66961;51.482;9.160;2024-02-23T11:50:41;97172.59;;;8.87;59.43
77770;BME280;66961;51.482;9.160;2024-02-23T11:53:08;97176.22;;;9.18;57.15
77770;BME280;66961;51.482;9.160;2024-02-23T11:55:33;97166.47;;;9.37;54.84
77770;BME280;66961;51.482;9.160;2024-02-23T11:57:59;97162.34;;;9.41;55.52
77770;BME280;66961;51.482;9.160;2024-02-23T12:00:24;97167.72;;;9.34;55.41
77770;BME280;66961;51.482;9.160;2024-02-23T12:02:50;97167.38;;;8.81;56.35
77770;BME280;66961;51.482;9.160;2024-02-23T12:05:15;97173.19;;;9.14;60.06
77770;BME280;66961;51.482;9.160;2024-02-23T12:07:41;97177.78;;;9.01;56.72
77770;BME280;66961;51.482;9.160;2024-02-23T12:10:07;97165.78;;;9.23;59.22
77770;BME280;66961;51.482;9.160;2024-02-23T12:12:32;97185.69;;;8.76;59.91
77770;BME280;66961;51.482;9.160;2024-02-23T12:14:58;97172.38;;;8.89;56.19
77770;BME280;66961;51.482;9.160;2024-02-23T12:17:24;97183.16;;;8.87;57.64
77770;BME280;66961;51.482;9.160;2024-02-23T12:19:49;97173.69;;;8.48;59.02
77770;BME280;66961;51.482;9.160;2024-02-23T12:22:14;97190.34;;;8.49;58.12
77770;BME280;66961;51.482;9.160;2024-02-23T12:24:41;97167.31;;;8.24;56.99
77770;BME280;66961;51.482;9.160;2024-02-23T12:27:06;97176.31;;;8.10;57.84
77770;BME280;66961;51.482;9.160;2024-02-23T12:29:32;97172.13;;;8.34;60.33
77770;BME280;66961;51.482;9.160;2024-02-23T12:32:07;97187.03;;;8.60;54.62
77770;BME280;66961;51.482;9.160;2024-02-23T12:34:33;97173.94;;;8.40;56.48
77770;BME280;66961;51.482;9.160;2024-02-23T12:36:59;97192.88;;;8.30;57.42
77770;BME280;66961;51.482;9.160;2024-02-23T12:39:26;97183.16;;;8.24;56.09
77770;BME280;66961;51.482;9.160;2024-02-23T12:41:52;97185.97;;;8.68;58.82
77770;BME280;66961;51.482;9.160;2024-02-23T12:44:17;97182.63;;;8.79;54.88
77770;BME280;66961;51.482;9.160;2024-02-23T12:46:42;97184.28;;;8.73;56.44
77770;BME280;66961;51.482;9.160;2024-02-23T12:49:07;97172.44;;;8.51;55.60
77770;BME280;66961;51.482;9.160;2024-02-23T12:51:33;97179.44;;;8.39;55.26
77770;BME280;66961;51.482;9.160;2024-02-23T12:54:00;97188.78;;;8.35;58.54
77770;BME280;66961;51.482;9.160;2024-02-23T12:56:25;97192.91;;;8.17;57.26
77770;BME280;66961;51.482;9.160;2024-02-23T12:58:50;97175.66;;;8.21;58.75
77770;BME280;66961;51.482;9.160;2024-02-23T13:01:15;97192.91;;;8.24;56.18